sensor_id;sensor_type;location;lat;lon;timestamp;temperature;humidity
32698;DHT22;19087;51.062;3.754;2024-02-23T00:01:51;6.40;99.90
32698;DHT22;19087;51.062;3.754;2024-02-23T00:04:17;6.50;99.90
32698;DHT22;19087;51.062;3.754;2024-02-23T00:06:44;6.30;99.90
32698;DHT22;19087;51.062;3.754;2024-02-23T00:09:10;6.20;99.90
32698;DHT22;19087;51.062;3.754;2024-02-23T00:11:40;6.10;99.90
32698;DHT22;19087;51.062;3.754;2024-02-23T00:14:12;6.10;99.90
32698;DHT22;19087;51.062;3.754;2024-02-23T00:16:39;6.10;99.90
32698;DHT22;19087;51.062;3.754;2024-02-23T00:19:08;6.20;99.90
32698;DHT22;19087;51.062;3.754;2024-02-23T00:21:37;6.00;99.90
32698;DHT22;19087;51.062;3.754;2024-02-23T00:24:04;6.10;99.90
32698;DHT22;19087;51.062;3.754;2024-02-23T00:26:30;6.10;99.90
32698;DHT22;19087;51.062;3.754;2024-02-23T00:28:56;6.20;99.90
32698;DHT22;19087;51.062;3.754;2024-02-23T00:31:24;6.30;99.90
32698;DHT22;19087;51.062;3.754;2024-02-23T00:33:50;6.20;99.90
32698;DHT22;19087;51.062;3.754;2024-02-23T00:36:15;6.50;99.90
32698;DHT22;19087;51.062;3.754;2024-02-23T00:38:43;6.40;99.90
32698;DHT22;19087;51.062;3.754;2024-02-23T00:41:09;6.40;99.90
32698;DHT22;19087;51.062;3.754;2024-02-23T00:43:41;6.40;99.90
32698;DHT22;19087;51.062;3.754;2024-02-23T00:46:07;6.50;99.90
32698;DHT22;19087;51.062;3.754;2024-02-23T00:48:33;6.60;99.90
32698;DHT22;19087;51.062;3.754;2024-02-23T00:51:00;6.70;99.90
32698;DHT22;19087;51.062;3.754;2024-02-23T00:53:25;6.40;99.90
32698;DHT22;19087;51.062;3.754;2024-02-23T00:55:51;6.30;99.90
32698;DHT22;19087;51.062;3.754;2024-02-23T00:58:17;6.40;99.90
32698;DHT22;19087;51.062;3.754;2024-02-23T01:00:42;6.30;99.90
32698;DHT22;19087;51.062;3.754;2024-02-23T01:03:08;6.40;99.90
32698;DHT22;19087;51.062;3.754;2024-02-23T01:05:34;6.30;99.90
32698;DHT22;19087;51.062;3.754;2024-02-23T01:07:59;6.10;99.90
32698;DHT22;19087;51.062;3.754;2024-02-23T01:10:25;5.90;99.90
32698;DHT22;19087;51.062;3.754;2024-02-23T01:12:51;5.80;99.90
32698;DHT22;19087;51.062;3.754;2024-02-23T01:15:17;5.90;99.90
32698;DHT22;19087;51.062;3.754;2024-02-23T01:17:43;5.80;99.90
32698;DHT22;19087;51.062;3.754;2024-02-23T01:20:09;5.70;99.90
32698;DHT22;19087;51.062;3.754;2024-02-23T01:22:35;5.60;99.90
32698;DHT22;19087;51.062;3.754;2024-02-23T01:25:01;5.80;99.90
32698;DHT22;19087;51.062;3.754;2024-02-23T01:27:26;5.80;99.90
32698;DHT22;19087;51.062;3.754;2024-02-23T01:29:52;5.70;99.90
32698;DHT22;19087;51.062;3.754;2024-02-23T01:32:18;5.80;99.90
32698;DHT22;19087;51.062;3.754;2024-02-23T01:34:44;5.90;99.90
32698;DHT22;19087;51.062;3.754;2024-02-23T01:37:10;5.80;99.90
32698;DHT22;19087;51.062;3.754;2024-02-23T01:39:37;5.90;99.90
32698;DHT22;19087;51.062;3.754;2024-02-23T01:42:02;5.90;99.90
32698;DHT22;19087;51.062;3.754;2024-02-23T01:44:28;5.90;99.90
32698;DHT22;19087;51.062;3.754;2024-02-23T01:46:54;6.00;99.90
32698;DHT22;19087;51.062;3.754;2024-02-23T01:49:21;5.80;99.90
32698;DHT22;19087;51.062;3.754;2024-02-23T01:51:49;5.90;99.90
32698;DHT22;19087;51.062;3.754;2024-02-23T01:54:16;6.20;99.90
32698;DHT22;19087;51.062;3.754;2024-02-23T01:56:42;6.20;99.90
32698;DHT22;19087;51.062;3.754;2024-02-23T01:59:10;6.00;99.90
32698;DHT22;19087;51.062;3.754;2024-02-23T02:01:36;5.90;99.90
32698;DHT22;19087;51.062;3.754;2024-02-23T02:04:02;6.00;99.90
32698;DHT22;19087;51.062;3.754;2024-02-23T02:06:27;6.00;99.90
32698;DHT22;19087;51.062;3.754;2024-02-23T02:08:54;6.10;99.90
32698;DHT22;19087;51.062;3.754;2024-02-23T02:11:19;6.00;99.90
32698;DHT22;19087;51.062;3.754;2024-02-23T02:13:45;5.90;99.90
32698;DHT22;19087;51.062;3.754;2024-02-23T02:16:11;6.00;99.90
32698;DHT22;19087;51.062;3.754;2024-02-23T02:18:37;6.00;99.90
32698;DHT22;19087;51.062;3.754;2024-02-23T02:21:04;6.00;99.90
32698;DHT22;19087;51.062;3.754;2024-02-23T02:23:29;6.00;99.90
32698;DHT22;19087;51.062;3.754;2024-02-23T02:25:56;5.90;99.90
32698;DHT22;19087;51.062;3.754;2024-02-23T02:28:23;6.00;99.90
32698;DHT22;19087;51.062;3.754;2024-02-23T02:30:50;6.00;99.90
32698;DHT22;19087;51.062;3.754;2024-02-23T02:33:17;6.00;99.90
32698;DHT22;19087;51.062;3.754;2024-02-23T02:35:43;5.90;99.90
32698;DHT22;19087;51.062;3.754;2024-02-23T02:38:10;5.80;99.90
32698;DHT22;19087;51.062;3.754;2024-02-23T02:40:38;5.80;99.90
32698;DHT22;19087;51.062;3.754;2024-02-23T02:43:05;5.80;99.90
32698;DHT22;19087;51.062;3.754;2024-02-23T02:45:32;5.90;99.90
32698;DHT22;19087;51.062;3.754;2024-02-23T02:47:59;5.90;99.90
32698;DHT22;19087;51.062;3.754;2024-02-23T02:50:25;5.90;99.90
32698;DHT22;19087;51.062;3.754;2024-02-23T02:52:51;5.90;99.90
32698;DHT22;19087;51.062;3.754;2024-02-23T02:55:17;5.90;99.90
32698;DHT22;19087;51.062;3.754;2024-02-23T02:57:44;5.90;99.90
32698;DHT22;19087;51.062;3.754;2024-02-23T03:00:10;5.90;99.90
32698;DHT22;19087;51.062;3.754;2024-02-23T03:02:37;5.90;99.90
32698;DHT22;19087;51.062;3.754;2024-02-23T03:05:03;5.90;99.90
32698;DHT22;19087;51.062;3.754;2024-02-23T03:07:29;5.90;99.90
32698;DHT22;19087;51.062;3.754;2024-02-23T03:09:55;6.00;99.90
32698;DHT22;19087;51.062;3.754;2024-02-23T03:12:21;6.00;99.90
32698;DHT22;19087;51.062;3.754;2024-02-23T03:14:47;6.00;99.90
32698;DHT22;19087;51.062;3.754;2024-02-23T03:17:13;6.10;99.90
32698;DHT22;19087;51.062;3.754;2024-02-23T03:19:38;6.10;99.90
32698;DHT22;19087;51.062;3.754;2024-02-23T03:22:04;6.10;99.90
32698;DHT22;19087;51.062;3.754;2024-02-23T03:24:30;6.30;99.90
32698;DHT22;19087;51.062;3.754;2024-02-23T03:26:56;6.40;99.90
32698;DHT22;19087;51.062;3.754;2024-02-23T03:29:22;6.30;99.90
32698;DHT22;19087;51.062;3.754;2024-02-23T03:31:55;6.20;99.90
32698;DHT22;19087;51.062;3.754;2024-02-23T03:34:21;6.10;99.90
32698;DHT22;19087;51.062;3.754;2024-02-23T03:36:46;6.10;99.90
32698;DHT22;19087;51.062;3.754;2024-02-23T03:39:13;6.20;99.90
32698;DHT22;19087;51.062;3.754;2024-02-23T03:41:39;6.20;99.90
32698;DHT22;19087;51.062;3.754;2024-02-23T03:44:04;6.10;99.90
32698;DHT22;19087;51.062;3.754;2024-02-23T03:46:30;6.20;99.90
32698;DHT22;19087;51.062;3.754;2024-02-23T03:48:56;6.10;99.90
32698;DHT22;19087;51.062;3.754;2024-02-23T03:51:23;6.10;99.90
32698;DHT22;19087;51.062;3.754;2024-02-23T03:53:49;6.10;99.90
32698;DHT22;19087;51.062;3.754;2024-02-23T03:56:15;6.20;99.90
32698;DHT22;19087;51.062;3.754;2024-02-23T03:58:41;6.10;99.90
32698;DHT22;19087;51.062;3.754;2024-02-23T04:01:07;6.20;99.90
32698;DHT22;19087;51.062;3.754;2024-02-23T04:03:32;6.20;99.90
32698;DHT22;19087;51.062;3.754;2024-02-23T04:05:58;6.30;99.90
32698;DHT22;19087;51.062;3.754;2024-02-23T04:08:24;6.20;99.90
32698;DHT22;19087;51.062;3.754;2024-02-23T04:10:50;6.30;99.90
32698;DHT22;19087;51.062;3.754;2024-02-23T04:13:15;6.30;99.90
32698;DHT22;19087;51.062;3.754;2024-02-23T04:15:44;6.30;99.90
32698;DHT22;19087;51.062;3.754;2024-02-23T04:18:10;6.30;99.90
32698;DHT22;19087;51.062;3.754;2024-02-23T04:20:35;6.30;99.90
32698;DHT22;19087;51.062;3.754;2024-02-23T04:23:02;6.20;99.90
32698;DHT22;19087;51.062;3.754;2024-02-23T04:25:28;6.20;99.90
32698;DHT22;19087;51.062;3.754;2024-02-23T04:27:53;6.30;99.90
32698;DHT22;19087;51.062;3.754;2024-02-23T04:30:19;6.10;99.90
32698;DHT22;19087;51.062;3.754;2024-02-23T04:32:45;6.10;99.90
32698;DHT22;19087;51.062;3.754;2024-02-23T04:35:11;6.00;99.90
32698;DHT22;19087;51.062;3.754;2024-02-23T04:37:38;6.00;99.90
32698;DHT22;19087;51.062;3.754;2024-02-23T04:40:16;5.90;99.90
32698;DHT22;19087;51.062;3.754;2024-02-23T04:42:44;5.90;99.90
32698;DHT22;19087;51.062;3.754;2024-02-23T04:45:11;5.80;99.90
32698;DHT22;19087;51.062;3.754;2024-02-23T04:47:36;5.80;99.90
32698;DHT22;19087;51.062;3.754;2024-02-23T04:50:02;5.70;99.90
32698;DHT22;19087;51.062;3.754;2024-02-23T04:52:28;5.80;99.90
32698;DHT22;19087;51.062;3.754;2024-02-23T04:54:55;5.80;99.90
32698;DHT22;19087;51.062;3.754;2024-02-23T04:57:20;5.80;99.90
32698;DHT22;19087;51.062;3.754;2024-02-23T04:59:46;5.70;99.90
32698;DHT22;19087;51.062;3.754;2024-02-23T05:02:11;5.70;99.90
32698;DHT22;19087;51.062;3.754;2024-02-23T05:04:37;5.70;99.90
32698;DHT22;19087;51.062;3.754;2024-02-23T05:07:03;5.60;99.90
32698;DHT22;19087;51.062;3.754;2024-02-23T05:09:28;5.60;99.90
32698;DHT22;19087;51.062;3.754;2024-02-23T05:11:54;5.70;99.90
32698;DHT22;19087;51.062;3.754;2024-02-23T05:14:21;5.70;99.90
32698;DHT22;19087;51.062;3.754;2024-02-23T05:16:47;5.60;99.90
32698;DHT22;19087;51.062;3.754;2024-02-23T05:19:12;5.70;99.90
32698;DHT22;19087;51.062;3.754;2024-02-23T05:21:38;5.70;99.90
32698;DHT22;19087;51.062;3.754;2024-02-23T05:24:04;5.70;99.90
32698;DHT22;19087;51.062;3.754;2024-02-23T05:26:31;5.80;99.90
32698;DHT22;19087;51.062;3.754;2024-02-23T05:28:57;5.80;99.90
32698;DHT22;19087;51.062;3.754;2024-02-23T05:31:45;5.80;99.90
32698;DHT22;19087;51.062;3.754;2024-02-23T05:34:12;5.80;99.90
32698;DHT22;19087;51.062;3.754;2024-02-23T05:36:37;5.70;99.90
32698;DHT22;19087;51.062;3.754;2024-02-23T05:39:03;5.70;99.90
32698;DHT22;19087;51.062;3.754;2024-02-23T05:41:29;5.70;99.90
32698;DHT22;19087;51.062;3.754;2024-02-23T05:43:54;5.70;99.90
32698;DHT22;19087;51.062;3.754;2024-02-23T05:46:20;5.70;99.90
32698;DHT22;19087;51.062;3.754;2024-02-23T05:48:46;5.80;99.90
32698;DHT22;19087;51.062;3.754;2024-02-23T05:51:14;5.80;99.90
32698;DHT22;19087;51.062;3.754;2024-02-23T05:53:41;5.80;99.90
32698;DHT22;19087;51.062;3.754;2024-02-23T05:56:06;5.80;99.90
32698;DHT22;19087;51.062;3.754;2024-02-23T05:58:33;5.80;99.90
32698;DHT22;19087;51.062;3.754;2024-02-23T06:00:58;5.90;99.90
32698;DHT22;19087;51.062;3.754;2024-02-23T06:03:24;5.80;99.90
32698;DHT22;19087;51.062;3.754;2024-02-23T06:05:50;5.90;99.90
32698;DHT22;19087;51.062;3.754;2024-02-23T06:08:16;5.90;99.90
32698;DHT22;19087;51.062;3.754;2024-02-23T06:10:41;5.90;99.90
32698;DHT22;19087;51.062;3.754;2024-02-23T06:13:08;5.90;99.90
32698;DHT22;19087;51.062;3.754;2024-02-23T06:15:34;5.90;99.90
32698;DHT22;19087;51.062;3.754;2024-02-23T06:18:02;5.90;99.90
32698;DHT22;19087;51.062;3.754;2024-02-23T06:20:28;5.90;99.90
32698;DHT22;19087;51.062;3.754;2024-02-23T06:22:58;5.90;99.90
32698;DHT22;19087;51.062;3.754;2024-02-23T06:25:23;5.90;99.90
32698;DHT22;19087;51.062;3.754;2024-02-23T06:27:49;5.90;99.90
32698;DHT22;19087;51.062;3.754;2024-02-23T06:30:16;5.90;99.90
32698;DHT22;19087;51.062;3.754;2024-02-23T06:32:42;5.90;99.90
32698;DHT22;19087;51.062;3.754;2024-02-23T06:35:08;6.00;99.90
32698;DHT22;19087;51.062;3.754;2024-02-23T06:37:35;6.00;99.90
32698;DHT22;19087;51.062;3.754;2024-02-23T06:40:01;6.00;99.90
32698;DHT22;19087;51.062;3.754;2024-02-23T06:42:28;6.10;99.90
32698;DHT22;19087;51.062;3.754;2024-02-23T06:44:55;6.20;99.90
32698;DHT22;19087;51.062;3.754;2024-02-23T06:47:21;6.20;99.90
32698;DHT22;19087;51.062;3.754;2024-02-23T06:49:47;6.20;99.90
32698;DHT22;19087;51.062;3.754;2024-02-23T06:52:13;6.30;99.90
32698;DHT22;19087;51.062;3.754;2024-02-23T06:54:40;6.30;99.90
32698;DHT22;19087;51.062;3.754;2024-02-23T06:57:06;6.40;99.90
32698;DHT22;19087;51.062;3.754;2024-02-23T06:59:32;6.40;99.90
32698;DHT22;19087;51.062;3.754;2024-02-23T07:01:57;6.40;99.90
32698;DHT22;19087;51.062;3.754;2024-02-23T07:04:23;6.40;99.90
32698;DHT22;19087;51.062;3.754;2024-02-23T07:06:51;6.50;99.90
32698;DHT22;19087;51.062;3.754;2024-02-23T07:09:17;6.40;99.90
32698;DHT22;19087;51.062;3.754;2024-02-23T07:11:42;6.40;99.90
32698;DHT22;19087;51.062;3.754;2024-02-23T07:14:09;6.60;99.90
32698;DHT22;19087;51.062;3.754;2024-02-23T07:16:38;6.60;99.90
32698;DHT22;19087;51.062;3.754;2024-02-23T07:19:07;6.70;99.90
32698;DHT22;19087;51.062;3.754;2024-02-23T07:21:33;6.60;99.90
32698;DHT22;19087;51.062;3.754;2024-02-23T07:24:00;6.60;99.90
32698;DHT22;19087;51.062;3.754;2024-02-23T07:26:26;6.70;99.90
32698;DHT22;19087;51.062;3.754;2024-02-23T07:28:55;6.70;99.90
32698;DHT22;19087;51.062;3.754;2024-02-23T07:31:21;6.60;99.90
32698;DHT22;19087;51.062;3.754;2024-02-23T07:33:47;6.60;99.90
32698;DHT22;19087;51.062;3.754;2024-02-23T07:36:17;6.60;99.90
32698;DHT22;19087;51.062;3.754;2024-02-23T07:38:43;6.50;99.90
32698;DHT22;19087;51.062;3.754;2024-02-23T07:41:11;6.50;99.90
32698;DHT22;19087;51.062;3.754;2024-02-23T07:43:38;6.50;99.90
32698;DHT22;19087;51.062;3.754;2024-02-23T07:46:04;6.50;99.90
32698;DHT22;19087;51.062;3.754;2024-02-23T07:48:30;6.40;99.90
32698;DHT22;19087;51.062;3.754;2024-02-23T07:50:56;6.50;99.90
32698;DHT22;19087;51.062;3.754;2024-02-23T07:53:22;6.40;99.90
32698;DHT22;19087;51.062;3.754;2024-02-23T07:55:48;6.40;99.90
32698;DHT22;19087;51.062;3.754;2024-02-23T07:58:15;6.60;99.90
32698;DHT22;19087;51.062;3.754;2024-02-23T08:00:40;6.60;99.90
32698;DHT22;19087;51.062;3.754;2024-02-23T08:03:06;6.60;99.90
32698;DHT22;19087;51.062;3.754;2024-02-23T08:05:33;6.60;99.90
32698;DHT22;19087;51.062;3.754;2024-02-23T08:07:58;6.60;99.90
32698;DHT22;19087;51.062;3.754;2024-02-23T08:10:24;6.60;99.90
32698;DHT22;19087;51.062;3.754;2024-02-23T08:12:51;6.60;99.90
32698;DHT22;19087;51.062;3.754;2024-02-23T08:15:16;6.70;99.90
32698;DHT22;19087;51.062;3.754;2024-02-23T08:17:42;6.70;99.90
32698;DHT22;19087;51.062;3.754;2024-02-23T08:20:09;6.70;99.90
32698;DHT22;19087;51.062;3.754;2024-02-23T08:22:35;6.70;99.90
32698;DHT22;19087;51.062;3.754;2024-02-23T08:25:01;6.90;99.90
32698;DHT22;19087;51.062;3.754;2024-02-23T08:27:26;6.90;99.90
32698;DHT22;19087;51.062;3.754;2024-02-23T08:29:52;6.90;99.90
32698;DHT22;19087;51.062;3.754;2024-02-23T08:32:18;7.10;99.90
32698;DHT22;19087;51.062;3.754;2024-02-23T08:34:45;7.30;99.90
32698;DHT22;19087;51.062;3.754;2024-02-23T08:37:11;7.30;99.90
32698;DHT22;19087;51.062;3.754;2024-02-23T08:39:38;7.20;99.90
32698;DHT22;19087;51.062;3.754;2024-02-23T08:42:04;7.10;99.90
32698;DHT22;19087;51.062;3.754;2024-02-23T08:44:31;7.10;99.90
32698;DHT22;19087;51.062;3.754;2024-02-23T08:46:56;7.10;99.90
32698;DHT22;19087;51.062;3.754;2024-02-23T08:49:23;7.10;99.90
32698;DHT22;19087;51.062;3.754;2024-02-23T08:51:49;7.20;99.90
32698;DHT22;19087;51.062;3.754;2024-02-23T08:54:14;7.30;99.90
32698;DHT22;19087;51.062;3.754;2024-02-23T08:56:40;7.30;99.90
32698;DHT22;19087;51.062;3.754;2024-02-23T08:59:08;7.30;99.90
32698;DHT22;19087;51.062;3.754;2024-02-23T09:01:34;7.40;99.90
32698;DHT22;19087;51.062;3.754;2024-02-23T09:04:00;7.40;99.90
32698;DHT22;19087;51.062;3.754;2024-02-23T09:06:26;7.30;99.90
32698;DHT22;19087;51.062;3.754;2024-02-23T09:08:52;7.30;99.90
32698;DHT22;19087;51.062;3.754;2024-02-23T09:11:20;7.30;99.90
32698;DHT22;19087;51.062;3.754;2024-02-23T09:13:46;7.30;99.90
32698;DHT22;19087;51.062;3.754;2024-02-23T09:16:12;7.20;99.90
32698;DHT22;19087;51.062;3.754;2024-02-23T09:18:37;7.20;99.90
32698;DHT22;19087;51.062;3.754;2024-02-23T09:21:03;7.20;99.90
32698;DHT22;19087;51.062;3.754;2024-02-23T09:23:29;7.30;99.90
32698;DHT22;19087;51.062;3.754;2024-02-23T09:25:56;7.40;99.90
32698;DHT22;19087;51.062;3.754;2024-02-23T09:28:21;7.40;99.90
32698;DHT22;19087;51.062;3.754;2024-02-23T09:30:47;7.50;99.90
32698;DHT22;19087;51.062;3.754;2024-02-23T09:33:13;7.60;99.90
32698;DHT22;19087;51.062;3.754;2024-02-23T09:35:39;7.60;99.90
32698;DHT22;19087;51.062;3.754;2024-02-23T09:38:05;7.60;99.90
32698;DHT22;19087;51.062;3.754;2024-02-23T09:40:30;7.60;99.90
32698;DHT22;19087;51.062;3.754;2024-02-23T09:42:58;7.70;99.90
32698;DHT22;19087;51.062;3.754;2024-02-23T09:45:27;7.80;99.90
32698;DHT22;19087;51.062;3.754;2024-02-23T09:47:56;7.90;99.90
32698;DHT22;19087;51.062;3.754;2024-02-23T09:50:23;8.00;99.90
32698;DHT22;19087;51.062;3.754;2024-02-23T09:52:50;8.10;99.90
32698;DHT22;19087;51.062;3.754;2024-02-23T09:55:17;8.00;99.90
32698;DHT22;19087;51.062;3.754;2024-02-23T09:57:44;8.00;99.90
32698;DHT22;19087;51.062;3.754;2024-02-23T10:00:12;8.00;99.90
32698;DHT22;19087;51.062;3.754;2024-02-23T10:02:39;8.10;99.90
32698;DHT22;19087;51.062;3.754;2024-02-23T10:05:07;8.10;99.90
32698;DHT22;19087;51.062;3.754;2024-02-23T10:07:33;8.00;99.90
32698;DHT22;19087;51.062;3.754;2024-02-23T10:10:00;8.00;99.90
32698;DHT22;19087;51.062;3.754;2024-02-23T10:12:26;8.10;99.90
32698;DHT22;19087;51.062;3.754;2024-02-23T10:14:52;8.10;99.90
32698;DHT22;19087;51.062;3.754;2024-02-23T10:17:19;8.10;99.90
32698;DHT22;19087;51.062;3.754;2024-02-23T10:19:45;8.20;99.90
32698;DHT22;19087;51.062;3.754;2024-02-23T10:22:12;8.20;99.90
32698;DHT22;19087;51.062;3.754;2024-02-23T10:24:38;8.40;99.90
32698;DHT22;19087;51.062;3.754;2024-02-23T10:27:03;8.50;99.90
32698;DHT22;19087;51.062;3.754;2024-02-23T10:29:30;8.60;99.90
32698;DHT22;19087;51.062;3.754;2024-02-23T10:31:57;8.60;99.90
32698;DHT22;19087;51.062;3.754;2024-02-23T10:34:27;8.80;99.90
32698;DHT22;19087;51.062;3.754;2024-02-23T10:36:55;8.90;99.90
32698;DHT22;19087;51.062;3.754;2024-02-23T10:39:24;8.90;99.90
32698;DHT22;19087;51.062;3.754;2024-02-23T10:41:57;8.90;99.90
32698;DHT22;19087;51.062;3.754;2024-02-23T10:44:28;8.90;99.90
32698;DHT22;19087;51.062;3.754;2024-02-23T10:46:54;9.00;99.90
32698;DHT22;19087;51.062;3.754;2024-02-23T10:49:23;9.10;99.90
32698;DHT22;19087;51.062;3.754;2024-02-23T10:51:53;9.30;99.90
32698;DHT22;19087;51.062;3.754;2024-02-23T10:54:20;9.50;99.90
32698;DHT22;19087;51.062;3.754;2024-02-23T10:56:48;9.50;99.90
32698;DHT22;19087;51.062;3.754;2024-02-23T10:59:14;9.40;99.90
32698;DHT22;19087;51.062;3.754;2024-02-23T11:01:48;9.30;99.90
32698;DHT22;19087;51.062;3.754;2024-02-23T11:04:19;9.10;99.90
32698;DHT22;19087;51.062;3.754;2024-02-23T11:06:50;8.90;99.90
32698;DHT22;19087;51.062;3.754;2024-02-23T11:09:16;8.90;99.90
32698;DHT22;19087;51.062;3.754;2024-02-23T11:11:57;9.00;99.90
32698;DHT22;19087;51.062;3.754;2024-02-23T11:14:34;9.10;99.90
32698;DHT22;19087;51.062;3.754;2024-02-23T11:17:00;9.10;99.90
32698;DHT22;19087;51.062;3.754;2024-02-23T11:19:40;9.20;99.90
32698;DHT22;19087;51.062;3.754;2024-02-23T11:22:09;9.30;99.90
32698;DHT22;19087;51.062;3.754;2024-02-23T11:24:43;9.20;99.90
32698;DHT22;19087;51.062;3.754;2024-02-23T11:27:14;9.30;99.90
32698;DHT22;19087;51.062;3.754;2024-02-23T11:29:42;9.40;99.90
32698;DHT22;19087;51.062;3.754;2024-02-23T11:32:18;9.50;99.90
32698;DHT22;19087;51.062;3.754;2024-02-23T11:34:56;9.50;99.90
32698;DHT22;19087;51.062;3.754;2024-02-23T11:37:22;9.60;99.90
32698;DHT22;19087;51.062;3.754;2024-02-23T11:39:48;9.40;99.90
32698;DHT22;19087;51.062;3.754;2024-02-23T11:42:14;9.50;99.90
32698;DHT22;19087;51.062;3.754;2024-02-23T11:44:40;9.70;99.90
32698;DHT22;19087;51.062;3.754;2024-02-23T11:47:07;9.70;99.90
32698;DHT22;19087;51.062;3.754;2024-02-23T11:49:33;9.60;99.90
32698;DHT22;19087;51.062;3.754;2024-02-23T11:51:58;9.70;99.90
32698;DHT22;19087;51.062;3.754;2024-02-23T11:54:25;9.40;99.90
32698;DHT22;19087;51.062;3.754;2024-02-23T11:56:51;8.90;99.90
32698;DHT22;19087;51.062;3.754;2024-02-23T11:59:21;9.00;99.90
32698;DHT22;19087;51.062;3.754;2024-02-23T12:01:47;9.10;99.90
32698;DHT22;19087;51.062;3.754;2024-02-23T12:04:14;9.20;99.90
32698;DHT22;19087;51.062;3.754;2024-02-23T12:06:42;9.40;99.90
32698;DHT22;19087;51.062;3.754;2024-02-23T12:09:09;9.30;99.90
32698;DHT22;19087;51.062;3.754;2024-02-23T12:11:36;9.10;99.90
32698;DHT22;19087;51.062;3.754;2024-02-23T12:14:02;9.10;99.90
32698;DHT22;19087;51.062;3.754;2024-02-23T12:16:34;9.20;99.90
32698;DHT22;19087;51.062;3.754;2024-02-23T12:19:03;9.20;99.90
32698;DHT22;19087;51.062;3.754;2024-02-23T12:21:30;9.60;99.90
32698;DHT22;19087;51.062;3.754;2024-02-23T12:23:56;9.40;99.90
32698;DHT22;19087;51.062;3.754;2024-02-23T12:26:22;9.30;99.90
32698;DHT22;19087;51.062;3.754;2024-02-23T12:28:48;9.40;99.90
32698;DHT22;19087;51.062;3.754;2024-02-23T12:31:14;9.80;99.90
32698;DHT22;19087;51.062;3.754;2024-02-23T12:33:40;9.80;99.90
32698;DHT22;19087;51.062;3.754;2024-02-23T12:36:08;9.90;99.90
32698;DHT22;19087;51.062;3.754;2024-02-23T12:38:35;10.40;99.90
32698;DHT22;19087;51.062;3.754;2024-02-23T12:41:02;10.80;99.90
32698;DHT22;19087;51.062;3.754;2024-02-23T12:43:28;11.20;99.90
32698;DHT22;19087;51.062;3.754;2024-02-23T12:45:55;10.90;99.90
32698;DHT22;19087;51.062;3.754;2024-02-23T12:48:22;11.00;99.90
32698;DHT22;19087;51.062;3.754;2024-02-23T12:50:50;10.70;99.90
32698;DHT22;19087;51.062;3.754;2024-02-23T12:53:43;10.60;99.90
32698;DHT22;19087;51.062;3.754;2024-02-23T12:56:15;11.00;99.90
32698;DHT22;19087;51.062;3.754;2024-02-23T12:58:43;10.70;99.90
32698;DHT22;19087;51.062;3.754;2024-02-23T13:01:11;10.50;99.90
32698;DHT22;19087;51.062;3.754;2024-02-23T13:03:42;9.90;99.90
32698;DHT22;19087;51.062;3.754;2024-02-23T13:06:08;9.90;99.90
32698;DHT22;19087;51.062;3.754;2024-02-23T13:08:35;9.90;99.90
32698;DHT22;19087;51.062;3.754;2024-02-23T13:11:01;10.00;99.90
32698;DHT22;19087;51.062;3.754;2024-02-23T13:13:32;10.00;99.90
32698;DHT22;19087;51.062;3.754;2024-02-23T13:15:58;10.00;99.90
32698;DHT22;19087;51.062;3.754;2024-02-23T13:18:24;10.00;99.90
32698;DHT22;19087;51.062;3.754;2024-02-23T13:20:51;10.10;99.90
32698;DHT22;19087;51.062;3.754;2024-02-23T13:23:29;9.80;99.90
32698;DHT22;19087;51.062;3.754;2024-02-23T13:25:59;9.80;99.90
32698;DHT22;19087;51.062;3.754;2024-02-23T13:28:28;9.90;99.90
32698;DHT22;19087;51.062;3.754;2024-02-23T13:30:53;10.10;99.90
32698;DHT22;19087;51.062;3.754;2024-02-23T13:33:19;10.20;99.90
32698;DHT22;19087;51.062;3.754;2024-02-23T13:35:49;10.30;99.90
32698;DHT22;19087;51.062;3.754;2024-02-23T13:38:15;10.00;99.90
32698;DHT22;19087;51.062;3.754;2024-02-23T13:40:41;9.90;99.90
32698;DHT22;19087;51.062;3.754;2024-02-23T13:43:06;9.90;99.90
32698;DHT22;19087;51.062;3.754;2024-02-23T13:45:33;10.00;99.90
32698;DHT22;19087;51.062;3.754;2024-02-23T13:48:01;9.90;99.90
32698;DHT22;19087;51.062;3.754;2024-02-23T13:50:34;10.00;99.90
32698;DHT22;19087;51.062;3.754;2024-02-23T13:53:00;10.10;99.90
32698;DHT22;19087;51.062;3.754;2024-02-23T13:55:28;10.20;99.90
32698;DHT22;19087;51.062;3.754;2024-02-23T13:57:54;10.10;99.90
32698;DHT22;19087;51.062;3.754;2024-02-23T14:00:20;10.20;99.90
32698;DHT22;19087;51.062;3.754;2024-02-23T14:02:49;10.20;99.90
32698;DHT22;19087;51.062;3.754;2024-02-23T14:05:15;10.30;99.90
32698;DHT22;19087;51.062;3.754;2024-02-23T14:07:40;10.60;99.90
32698;DHT22;19087;51.062;3.754;2024-02-23T14:10:07;10.80;99.90
32698;DHT22;19087;51.062;3.754;2024-02-23T14:12:33;10.90;99.90
32698;DHT22;19087;51.062;3.754;2024-02-23T14:14:58;10.60;99.90
32698;DHT22;19087;51.062;3.754;2024-02-23T14:17:24;10.80;99.90
32698;DHT22;19087;51.062;3.754;2024-02-23T14:19:50;11.10;99.90
32698;DHT22;19087;51.062;3.754;2024-02-23T14:22:16;11.10;99.90
32698;DHT22;19087;51.062;3.754;2024-02-23T14:24:45;10.70;99.90
32698;DHT22;19087;51.062;3.754;2024-02-23T14:27:11;11.00;99.90
32698;DHT22;19087;51.062;3.754;2024-02-23T14:29:37;11.10;99.90
32698;DHT22;19087;51.062;3.754;2024-02-23T14:32:02;11.10;99.90
32698;DHT22;19087;51.062;3.754;2024-02-23T14:34:30;10.90;99.90
32698;DHT22;19087;51.062;3.754;2024-02-23T14:36:59;10.50;99.90
32698;DHT22;19087;51.062;3.754;2024-02-23T14:39:27;10.30;99.90
32698;DHT22;19087;51.062;3.754;2024-02-23T14:41:53;9.60;99.90
32698;DHT22;19087;51.062;3.754;2024-02-23T14:44:18;9.40;99.90
32698;DHT22;19087;51.062;3.754;2024-02-23T14:46:44;9.10;99.90
32698;DHT22;19087;51.062;3.754;2024-02-23T14:49:10;8.80;99.90
32698;DHT22;19087;51.062;3.754;2024-02-23T14:51:36;8.80;99.90
32698;DHT22;19087;51.062;3.754;2024-02-23T14:54:02;9.00;99.90
32698;DHT22;19087;51.062;3.754;2024-02-23T14:56:28;9.10;99.90
32698;DHT22;19087;51.062;3.754;2024-02-23T14:58:55;9.10;99.90
32698;DHT22;19087;51.062;3.754;2024-02-23T15:01:22;9.30;99.90
32698;DHT22;19087;51.062;3.754;2024-02-23T15:03:48;9.50;99.90
32698;DHT22;19087;51.062;3.754;2024-02-23T15:06:14;9.50;99.90
32698;DHT22;19087;51.062;3.754;2024-02-23T15:08:41;9.60;99.90
32698;DHT22;19087;51.062;3.754;2024-02-23T15:11:11;9.60;99.90
32698;DHT22;19087;51.062;3.754;2024-02-23T15:13:37;9.60;99.90
32698;DHT22;19087;51.062;3.754;2024-02-23T15:16:03;9.40;99.90
32698;DHT22;19087;51.062;3.754;2024-02-23T15:18:28;9.20;99.90
32698;DHT22;19087;51.062;3.754;2024-02-23T15:20:57;9.00;99.90
32698;DHT22;19087;51.062;3.754;2024-02-23T15:23:28;9.00;99.90
32698;DHT22;19087;51.062;3.754;2024-02-23T15:25:54;8.90;99.90
32698;DHT22;19087;51.062;3.754;2024-02-23T15:28:20;9.00;99.90
32698;DHT22;19087;51.062;3.754;2024-02-23T15:30:51;9.00;99.90
32698;DHT22;19087;51.062;3.754;2024-02-23T15:33:19;9.10;99.90
32698;DHT22;19087;51.062;3.754;2024-02-23T15:35:48;9.10;99.90
32698;DHT22;19087;51.062;3.754;2024-02-23T15:38:15;9.10;99.90
32698;DHT22;19087;51.062;3.754;2024-02-23T15:40:41;9.00;99.90
32698;DHT22;19087;51.062;3.754;2024-02-23T15:43:08;9.00;99.90